Time;durP1;ratioP1;P1;durP2;ratioP2;P2;SDS_P1;SDS_P2;PMS_P1;PMS_P2;Temp;Humidity;BMP_temperature;BMP_pressure;BME280_temperature;BME280_humidity;BME280_pressure;Samples;Min_cycle;Max_cycle;Signal;HPM_P1;HPM_P2
2022/06/18 00:01:33;;;;;;;1999.90;999.90;;;17.70;99.90;;;;;;5067245;28;20453;-68
2022/06/18 00:04:00;;;;;;;1999.90;999.90;;;17.70;99.90;;;;;;5068639;28;20457;-70
2022/06/18 00:06:27;;;;;;;1999.90;999.90;;;17.60;99.90;;;;;;5068597;28;20523;-69
2022/06/18 00:08:54;;;;;;;1999.90;999.90;;;17.70;99.90;;;;;;5069504;28;20846;-71
2022/06/18 00:14:07;;;;;;;1999.90;999.90;;;17.70;99.90;;;;;;5065803;28;20453;-68
2022/06/18 00:16:34;;;;;;;1999.90;999.90;;;17.90;99.90;;;;;;5068050;28;20533;-68
2022/06/18 00:19:00;;;;;;;1999.90;999.90;;;17.90;99.90;;;;;;5068166;28;21028;-69
2022/06/18 00:21:27;;;;;;;1999.90;999.90;;;18.00;99.90;;;;;;5069553;28;20511;-68
2022/06/18 00:23:54;;;;;;;1999.90;999.90;;;18.00;99.90;;;;;;5067537;28;20893;-67
2022/06/18 00:26:22;;;;;;;1999.90;999.90;;;18.10;99.90;;;;;;5068644;28;20538;-67
2022/06/18 00:28:49;;;;;;;1999.90;999.90;;;18.10;99.90;;;;;;5068963;28;20465;-66
2022/06/18 00:31:15;;;;;;;1999.90;999.90;;;18.20;99.90;;;;;;5067721;28;20488;-68
2022/06/18 00:33:42;;;;;;;1999.90;999.90;;;18.30;99.90;;;;;;5069311;28;20899;-67
2022/06/18 00:36:15;;;;;;;1999.90;999.90;;;18.30;99.90;;;;;;5067625;28;20493;-68
2022/06/18 00:38:45;;;;;;;1999.90;999.90;;;18.10;99.90;;;;;;5068900;28;20809;-68
2022/06/18 00:41:17;;;;;;;1999.90;999.90;;;18.20;99.90;;;;;;5069015;28;20507;-72
2022/06/18 00:43:50;;;;;;;1999.90;999.90;;;18.10;99.90;;;;;;5065717;28;20483;-71
2022/06/18 00:46:24;;;;;;;1999.90;999.90;;;18.30;99.90;;;;;;5068881;28;20477;-68
2022/06/18 00:48:58;;;;;;;1999.90;999.90;;;18.40;99.90;;;;;;5066150;28;20487;-68
2022/06/18 00:51:30;;;;;;;1999.90;999.90;;;19.00;99.90;;;;;;5068166;28;20495;-67
2022/06/18 00:54:03;;;;;;;1999.90;999.90;;;18.60;99.90;;;;;;5068359;28;20511;-68
2022/06/18 00:56:34;;;;;;;1999.90;999.90;;;18.60;99.90;;;;;;5084566;22;20562;-71
2022/06/18 00:59:12;;;;;;;1999.90;999.90;;;18.70;99.90;;;;;;5061699;28;20489;-71
2022/06/18 01:01:43;;;;;;;1999.90;999.90;;;18.70;99.90;;;;;;5071612;28;20456;-71
2022/06/18 01:04:27;;;;;;;1999.90;999.90;;;18.60;99.90;;;;;;5065126;28;21034;-71
2022/06/18 01:07:00;;;;;;;1999.90;999.90;;;18.40;99.90;;;;;;5057143;28;20556;-71
2022/06/18 01:09:27;;;;;;;1999.90;999.90;;;18.30;99.90;;;;;;5050619;28;20462;-71
2022/06/18 01:11:55;;;;;;;1999.90;999.90;;;18.30;99.90;;;;;;5060641;28;20465;-71
2022/06/18 01:14:25;;;;;;;1999.90;999.90;;;18.20;99.90;;;;;;5056614;28;20463;-71
2022/06/18 01:16:54;;;;;;;1999.90;999.90;;;18.20;99.90;;;;;;5055017;28;20555;-71
2022/06/18 01:19:27;;;;;;;1999.90;999.90;;;18.20;99.90;;;;;;5053223;28;20524;-70
2022/06/18 01:22:07;;;;;;;1999.90;999.90;;;18.10;99.90;;;;;;5053093;28;20457;-71
2022/06/18 01:24:38;;;;;;;1999.90;999.90;;;18.10;99.90;;;;;;5060503;28;20449;-71
2022/06/18 01:27:07;;;;;;;1999.90;999.90;;;18.00;99.90;;;;;;5053204;28;20474;-71
2022/06/18 01:29:34;;;;;;;1999.90;999.90;;;18.10;99.90;;;;;;5054707;28;20458;-70
2022/06/18 01:32:02;;;;;;;1999.90;999.90;;;18.10;99.90;;;;;;5063465;28;20960;-71
2022/06/18 01:34:29;;;;;;;1999.90;999.90;;;18.10;99.90;;;;;;5059694;28;20465;-71
2022/06/18 01:36:58;;;;;;;1999.90;999.90;;;18.00;99.90;;;;;;5057294;28;20919;-71
2022/06/18 01:39:31;;;;;;;1999.90;999.90;;;18.00;99.90;;;;;;5052754;28;20465;-72
2022/06/18 01:42:03;;;;;;;1999.90;999.90;;;18.60;99.90;;;;;;5058641;28;20466;-71
2022/06/18 01:44:39;;;;;;;1999.90;999.90;;;17.80;99.90;;;;;;5054763;28;20462;-71
2022/06/18 01:47:10;;;;;;;1999.90;999.90;;;17.70;99.90;;;;;;5055999;28;20489;-71
2022/06/18 01:49:41;;;;;;;1999.90;999.90;;;17.60;99.90;;;;;;5050979;28;21028;-71
2022/06/18 01:52:10;;;;;;;1999.90;999.90;;;17.70;99.90;;;;;;5056407;28;20466;-71
2022/06/18 01:54:42;;;;;;;1999.90;999.90;;;17.90;99.90;;;;;;5066099;28;20457;-71
2022/06/18 01:57:15;;;;;;;1999.90;999.90;;;18.70;99.90;;;;;;5051691;28;20490;-71
2022/06/18 01:59:45;;;;;;;1999.90;999.90;;;20.10;97.00;;;;;;5056689;28;20461;-71
2022/06/18 02:02:12;;;;;;;1999.90;999.90;;;21.00;95.00;;;;;;5059020;28;20516;-70
2022/06/18 02:04:39;;;;;;;1999.90;999.90;;;21.70;93.50;;;;;;5065972;28;20514;-71
2022/06/18 02:07:07;;;;;;;1999.90;999.90;;;22.10;92.60;;;;;;5061639;28;20481;-72
2022/06/18 02:09:40;;;;;;;1999.90;999.90;;;22.20;92.10;;;;;;5054710;28;20453;-68
2022/06/18 02:12:13;;;;;;;1999.90;999.90;;;22.40;91.60;;;;;;5062090;28;20462;-69
2022/06/18 02:14:44;;;;;;;1999.90;999.90;;;22.50;91.20;;;;;;5056579;28;20457;-69
2022/06/18 02:17:17;;;;;;;1999.90;999.90;;;22.60;90.80;;;;;;5055378;28;20493;-69
2022/06/18 02:19:47;;;;;;;1999.90;999.90;;;22.80;90.50;;;;;;5048219;28;20461;-69
2022/06/18 02:22:14;;;;;;;1999.90;999.90;;;22.80;90.30;;;;;;5061076;28;20459;-69
2022/06/18 02:24:41;;;;;;;1999.90;999.90;;;22.90;90.00;;;;;;5065642;28;20461;-69
2022/06/18 02:27:14;;;;;;;1999.90;999.90;;;22.90;89.60;;;;;;5055933;28;20490;-69
2022/06/18 02:29:43;;;;;;;1999.90;999.90;;;23.00;89.20;;;;;;5050433;28;20457;-69
2022/06/18 02:32:19;;;;;;;1999.90;999.90;;;23.10;89.00;;;;;;5061292;28;20459;-68
2022/06/18 02:34:46;;;;;;;1999.90;999.90;;;23.20;88.40;;;;;;5057810;28;20518;-69
2022/06/18 02:37:20;;;;;;;1999.90;999.90;;;23.20;88.00;;;;;;5054519;28;20494;-68
2022/06/18 02:39:58;;;;;;;1999.90;999.90;;;23.20;87.90;;;;;;5056036;28;20461;-69
2022/06/18 02:42:28;;;;;;;1999.90;999.90;;;23.20;87.70;;;;;;5055987;28;20484;-70
2022/06/18 02:44:55;;;;;;;1999.90;999.90;;;23.20;87.80;;;;;;5060126;28;20557;-69
2022/06/18 02:47:22;;;;;;;1999.90;999.90;;;23.10;87.60;;;;;;5053126;28;20528;-70
2022/06/18 02:49:54;;;;;;;1999.90;999.90;;;23.20;87.60;;;;;;5049361;28;20911;-67
2022/06/18 02:52:24;;;;;;;1999.90;999.90;;;23.20;87.50;;;;;;5051670;28;20459;-70
2022/06/18 02:54:51;;;;;;;1999.90;999.90;;;23.20;87.30;;;;;;5060987;28;20877;-69
2022/06/18 02:57:26;;;;;;;1999.90;999.90;;;23.20;87.40;;;;;;5054550;28;21006;-70
2022/06/18 02:59:54;;;;;;;1999.90;999.90;;;23.20;87.40;;;;;;5055092;28;20461;-70
2022/06/18 03:02:21;;;;;;;1999.90;999.90;;;23.20;87.20;;;;;;5050858;28;20467;-70
2022/06/18 03:04:47;;;;;;;1999.90;999.90;;;23.20;87.50;;;;;;5064562;28;20469;-69
2022/06/18 03:07:14;;;;;;;1999.90;999.90;;;23.10;87.60;;;;;;5054045;28;20512;-69
2022/06/18 03:12:21;;;;;;;1999.90;999.90;;;23.10;88.20;;;;;;5061081;28;20454;-71
2022/06/18 03:14:48;;;;;;;1999.90;999.90;;;23.00;88.00;;;;;;5064295;28;20515;-68
2022/06/18 03:17:16;;;;;;;1999.90;999.90;;;23.00;87.90;;;;;;5058151;28;20564;-70
2022/06/18 03:19:47;;;;;;;1999.90;999.90;;;23.00;88.30;;;;;;5049291;28;20462;-70
2022/06/18 03:22:17;;;;;;;1999.90;999.90;;;23.00;88.70;;;;;;5060403;28;20507;-69
2022/06/18 03:24:44;;;;;;;1999.90;999.90;;;23.00;88.50;;;;;;5064410;28;20469;-70
2022/06/18 03:27:11;;;;;;;1999.90;999.90;;;23.00;88.60;;;;;;5048084;28;20540;-70
2022/06/18 03:29:38;;;;;;;1999.90;999.90;;;22.50;88.50;;;;;;5049761;28;20491;-70
2022/06/18 03:32:06;;;;;;;1999.90;999.90;;;22.90;89.40;;;;;;5060716;28;20894;-70
2022/06/18 03:34:34;;;;;;;1999.90;999.90;;;22.90;89.70;;;;;;5059254;28;20457;-70
2022/06/18 03:37:01;;;;;;;1999.90;999.90;;;22.90;90.00;;;;;;5055327;28;20490;-70
2022/06/18 03:39:28;;;;;;;1999.90;999.90;;;22.80;90.00;;;;;;5051226;28;20463;-70
2022/06/18 03:41:55;;;;;;;1999.90;999.90;;;22.90;90.50;;;;;;5062189;28;20470;-69
2022/06/18 03:44:23;;;;;;;1999.90;999.90;;;22.80;90.30;;;;;;5051267;28;20472;-70
2022/06/18 03:46:50;;;;;;;1999.90;999.90;;;22.70;90.60;;;;;;5053564;28;20475;-69
2022/06/18 03:49:24;;;;;;;1999.90;999.90;;;22.70;90.70;;;;;;5050842;28;20462;-70
2022/06/18 03:51:52;;;;;;;1999.90;999.90;;;22.60;91.00;;;;;;5056966;28;20458;-69
2022/06/18 03:54:19;;;;;;;1999.90;999.90;;;22.50;91.90;;;;;;5060830;28;20811;-70
2022/06/18 03:56:46;;;;;;;1999.90;999.90;;;22.50;91.80;;;;;;5052255;28;20547;-69
2022/06/18 03:59:13;;;;;;;1999.90;999.90;;;22.40;92.00;;;;;;5047069;28;20560;-69
2022/06/18 04:01:40;;;;;;;1999.90;999.90;;;22.40;92.40;;;;;;5059507;28;20469;-71
2022/06/18 04:04:07;;;;;;;1999.90;999.90;;;22.30;92.60;;;;;;5055122;28;20474;-69
2022/06/18 04:06:34;;;;;;;1999.90;999.90;;;22.40;92.80;;;;;;5059027;28;20478;-70
2022/06/18 04:09:03;;;;;;;1999.90;999.90;;;22.30;93.60;;;;;;5048766;28;20466;-70
2022/06/18 04:11:30;;;;;;;1999.90;999.90;;;22.30;93.10;;;;;;5056672;28;20462;-70
2022/06/18 04:13:56;;;;;;;1999.90;999.90;;;22.30;94.20;;;;;;5061675;28;20469;-70
2022/06/18 04:16:23;;;;;;;1999.90;999.90;;;22.30;93.60;;;;;;5057719;28;20482;-70
2022/06/18 04:18:50;;;;;;;1999.90;999.90;;;22.40;93.60;;;;;;5051632;28;20454;-70
2022/06/18 04:21:18;;;;;;;1999.90;999.90;;;22.40;93.90;;;;;;5049424;28;20466;-70
2022/06/18 04:23:45;;;;;;;1999.90;999.90;;;22.40;93.90;;;;;;5059798;28;20457;-70
2022/06/18 04:26:13;;;;;;;1999.90;999.90;;;22.40;93.90;;;;;;5059438;28;20528;-69
2022/06/18 04:28:41;;;;;;;1999.90;999.90;;;22.60;93.90;;;;;;5049259;28;20889;-69
2022/06/18 04:31:08;;;;;;;1999.90;999.90;;;22.60;94.30;;;;;;5053776;28;20465;-70
2022/06/18 04:33:35;;;;;;;1999.90;999.90;;;22.90;95.00;;;;;;5064022;28;20466;-70
2022/06/18 04:36:02;;;;;;;1999.90;999.90;;;23.40;94.30;;;;;;5061361;28;20539;-70
2022/06/18 04:38:29;;;;;;;1999.90;999.90;;;23.50;94.90;;;;;;5048661;28;20458;-70
2022/06/18 04:40:55;;;;;;;1999.90;999.90;;;23.80;93.70;;;;;;5054180;28;20519;-69
2022/06/18 04:43:23;;;;;;;1999.90;999.90;;;24.10;93.70;;;;;;5061738;28;20519;-71
2022/06/18 04:45:50;;;;;;;1999.90;999.90;;;24.10;94.20;;;;;;5062840;28;20469;-69
2022/06/18 04:48:17;;;;;;;1999.90;999.90;;;24.30;92.90;;;;;;5049086;28;20511;-70
2022/06/18 04:50:43;;;;;;;1999.90;999.90;;;24.50;93.30;;;;;;5054703;28;20461;-70
2022/06/18 04:53:11;;;;;;;1999.90;999.90;;;24.40;93.30;;;;;;5059399;28;20509;-70
2022/06/18 04:55:38;;;;;;;1999.90;999.90;;;24.60;92.60;;;;;;5053115;28;20457;-70
2022/06/18 04:58:05;;;;;;;1999.90;999.90;;;24.90;92.20;;;;;;5048922;28;20520;-70
2022/06/18 05:00:34;;;;;;;1999.90;999.90;;;25.30;92.00;;;;;;5052583;28;20519;-71
2022/06/18 05:03:00;;;;;;;1999.90;999.90;;;25.10;92.10;;;;;;5060690;28;20471;-70
2022/06/18 05:05:27;;;;;;;1999.90;999.90;;;25.20;91.50;;;;;;5057933;28;20458;-70
2022/06/18 05:07:54;;;;;;;1999.90;999.90;;;25.50;90.90;;;;;;5058386;28;20479;-69
2022/06/18 05:10:22;;;;;;;1999.90;999.90;;;26.00;91.10;;;;;;5054981;28;20462;-70
2022/06/18 05:12:48;;;;;;;1999.90;999.90;;;25.80;90.40;;;;;;5057519;28;20876;-70
2022/06/18 05:15:15;;;;;;;1999.90;999.90;;;25.90;90.00;;;;;;5062693;28;20462;-70
2022/06/18 05:17:45;;;;;;;1999.90;999.90;;;26.10;89.30;;;;;;5061434;28;20489;-70
2022/06/18 05:20:14;;;;;;;1999.90;999.90;;;26.00;89.60;;;;;;5057366;28;20528;-70
2022/06/18 05:22:41;;;;;;;1999.90;999.90;;;26.10;90.10;;;;;;5054919;28;20902;-70
2022/06/18 05:25:10;;;;;;;1999.90;999.90;;;26.30;89.50;;;;;;5056835;28;20505;-70
2022/06/18 05:27:37;;;;;;;1999.90;999.90;;;26.40;88.90;;;;;;5066305;28;20860;-70
2022/06/18 05:30:05;;;;;;;1999.90;999.90;;;26.20;89.60;;;;;;5054427;28;20466;-70
2022/06/18 05:32:32;;;;;;;1999.90;999.90;;;26.10;89.00;;;;;;5055198;28;20527;-70
2022/06/18 05:35:00;;;;;;;1999.90;999.90;;;26.20;89.50;;;;;;5062590;28;20461;-70
2022/06/18 05:37:29;;;;;;;1999.90;999.90;;;26.40;89.00;;;;;;5065023;28;20481;-69
2022/06/18 05:39:56;;;;;;;1999.90;999.90;;;26.60;88.70;;;;;;5053720;28;20468;-70
2022/06/18 05:42:22;;;;;;;1999.90;999.90;;;26.70;88.70;;;;;;5052868;28;20462;-70
2022/06/18 05:44:49;;;;;;;1999.90;999.90;;;26.80;88.20;;;;;;5052375;28;20462;-70
2022/06/18 05:47:19;;;;;;;1999.90;999.90;;;26.80;88.10;;;;;;5052544;28;20468;-69
2022/06/18 05:49:46;;;;;;;1999.90;999.90;;;27.20;87.90;;;;;;5065870;28;20471;-70
2022/06/18 05:52:14;;;;;;;1999.90;999.90;;;27.10;87.00;;;;;;5057930;28;20504;-68
2022/06/18 05:54:41;;;;;;;1999.90;999.90;;;27.00;86.80;;;;;;5051835;28;20532;-70
2022/06/18 05:57:08;;;;;;;1999.90;999.90;;;27.00;87.30;;;;;;5051116;28;21043;-71
2022/06/18 05:59:35;;;;;;;1999.90;999.90;;;27.30;87.00;;;;;;5052205;28;20466;-70
2022/06/18 06:02:02;;;;;;;1999.90;999.90;;;27.20;86.40;;;;;;5051365;28;20470;-71
2022/06/18 06:04:30;;;;;;;1999.90;999.90;;;27.40;85.90;;;;;;5050614;28;20462;-71
2022/06/18 06:06:58;;;;;;;1999.90;999.90;;;27.60;85.90;;;;;;5049825;28;21010;-69
2022/06/18 06:12:13;;;;;;;1999.90;999.90;;;27.50;85.80;;;;;;5025550;28;20569;-69
2022/06/18 06:14:41;;;;;;;1999.90;999.90;;;27.60;85.40;;;;;;5061308;28;20588;-70
2022/06/18 06:17:12;;;;;;;1999.90;999.90;;;27.60;86.10;;;;;;5049417;28;20536;-70
2022/06/18 06:19:39;;;;;;;1999.90;999.90;;;27.60;85.60;;;;;;5048732;28;20458;-70
2022/06/18 06:22:05;;;;;;;1999.90;999.90;;;27.40;86.20;;;;;;5052130;28;20470;-70
2022/06/18 06:24:33;;;;;;;1999.90;999.90;;;27.60;85.40;;;;;;5053298;28;20469;-71
2022/06/18 06:27:00;;;;;;;1999.90;999.90;;;27.80;84.60;;;;;;5050909;28;21025;-70
2022/06/18 06:29:27;;;;;;;1999.90;999.90;;;27.90;84.50;;;;;;5051549;28;20454;-70
2022/06/18 06:31:53;;;;;;;1999.90;999.90;;;27.80;84.30;;;;;;5052015;28;20957;-69
2022/06/18 06:34:20;;;;;;;1999.90;999.90;;;27.80;84.60;;;;;;5053907;28;20458;-70
2022/06/18 06:36:47;;;;;;;1999.90;999.90;;;27.80;84.60;;;;;;5051595;28;20524;-69
2022/06/18 06:39:13;;;;;;;1999.90;999.90;;;28.00;85.10;;;;;;5050155;28;20895;-69
2022/06/18 06:41:41;;;;;;;1999.90;999.90;;;28.10;84.90;;;;;;5052255;28;20466;-70
2022/06/18 06:44:09;;;;;;;1999.90;999.90;;;28.20;84.90;;;;;;5052877;28;20474;-70
2022/06/18 06:46:35;;;;;;;1999.90;999.90;;;28.30;83.90;;;;;;5044682;28;20889;-70
2022/06/18 06:49:02;;;;;;;1999.90;999.90;;;28.40;84.50;;;;;;5052573;28;20988;-68
2022/06/18 06:51:31;;;;;;;1999.90;999.90;;;28.30;85.10;;;;;;5050120;28;20463;-70
2022/06/18 06:53:57;;;;;;;1999.90;999.90;;;28.40;84.70;;;;;;5051505;28;20470;-70
2022/06/18 06:59:10;;;;;;;1999.90;999.90;;;28.70;84.20;;;;;;5050326;28;20972;-69
2022/06/18 07:01:38;;;;;;;1999.90;999.90;;;28.70;84.90;;;;;;5082416;22;20539;-68
2022/06/18 07:04:06;;;;;;;1999.90;999.90;;;28.70;85.00;;;;;;5069981;28;21012;-68
2022/06/18 07:06:33;;;;;;;1999.90;999.90;;;28.80;85.50;;;;;;5068411;28;20470;-64
2022/06/18 07:09:00;;;;;;;1999.90;999.90;;;28.90;84.90;;;;;;5070123;28;20515;-65
2022/06/18 07:11:26;;;;;;;1999.90;999.90;;;29.10;85.00;;;;;;5062210;28;20478;-65
2022/06/18 07:13:53;;;;;;;1999.90;999.90;;;29.00;85.10;;;;;;5051127;28;20466;-65
2022/06/18 07:16:21;;;;;;;1999.90;999.90;;;29.00;84.90;;;;;;5048887;28;20458;-66
2022/06/18 07:18:49;;;;;;;1999.90;999.90;;;29.00;84.50;;;;;;5057309;28;20481;-66
2022/06/18 07:21:19;;;;;;;1999.90;999.90;;;29.10;84.60;;;;;;5060148;28;20534;-64
2022/06/18 07:23:46;;;;;;;1999.90;999.90;;;29.10;83.50;;;;;;5062546;28;21022;-66
2022/06/18 07:26:15;;;;;;;1999.90;999.90;;;29.30;84.20;;;;;;5056635;28;20529;-65
2022/06/18 07:28:43;;;;;;;1999.90;999.90;;;29.60;84.70;;;;;;5060266;28;20463;-66
2022/06/18 07:31:14;;;;;;;1999.90;999.90;;;29.80;83.60;;;;;;5052761;28;20486;-66
2022/06/18 07:33:45;;;;;;;1999.90;999.90;;;29.90;82.00;;;;;;5048660;28;20443;-65
2022/06/18 07:36:12;;;;;;;1999.90;999.90;;;30.20;81.00;;;;;;5052799;28;20492;-65
2022/06/18 07:38:39;;;;;;;1999.90;999.90;;;30.20;81.30;;;;;;5054414;28;20485;-66
2022/06/18 07:41:07;;;;;;;1999.90;999.90;;;30.60;79.60;;;;;;5055455;28;20474;-66
2022/06/18 07:43:37;;;;;;;1999.90;999.90;;;30.20;79.60;;;;;;5052522;28;20496;-65
2022/06/18 07:46:06;;;;;;;1999.90;999.90;;;30.10;80.30;;;;;;5052193;28;21128;-65
2022/06/18 07:48:33;;;;;;;1999.90;999.90;;;30.10;80.60;;;;;;5057973;28;20462;-66
2022/06/18 07:51:03;;;;;;;1999.90;999.90;;;29.70;80.80;;;;;;5066935;28;20866;-65
2022/06/18 07:53:30;;;;;;;1999.90;999.90;;;29.60;81.00;;;;;;5072092;28;20540;-65
2022/06/18 07:55:56;;;;;;;1999.90;999.90;;;29.70;81.40;;;;;;5072022;28;20973;-65
2022/06/18 07:58:24;;;;;;;1999.90;999.90;;;30.00;80.10;;;;;;5055354;28;20485;-67
2022/06/18 08:00:50;;;;;;;1999.90;999.90;;;30.00;80.10;;;;;;5058085;28;20478;-65
2022/06/18 08:03:18;;;;;;;1999.90;999.90;;;29.80;80.60;;;;;;5051286;28;20457;-65
2022/06/18 08:05:46;;;;;;;1999.90;999.90;;;30.00;81.00;;;;;;5051965;28;20485;-66
2022/06/18 08:08:15;;;;;;;1999.90;999.90;;;30.10;80.30;;;;;;5051507;28;20847;-66
2022/06/18 08:10:45;;;;;;;1999.90;999.90;;;30.30;79.80;;;;;;5058349;28;20524;-65
2022/06/18 08:13:12;;;;;;;1999.90;999.90;;;30.30;78.90;;;;;;5055294;28;20530;-67
2022/06/18 08:15:39;;;;;;;1999.90;999.90;;;30.70;78.90;;;;;;5030912;28;20499;-65
2022/06/18 08:18:07;;;;;;;1999.90;999.90;;;30.40;78.20;;;;;;5029755;28;20986;-65
2022/06/18 08:20:35;;;;;;;1999.90;999.90;;;30.30;79.40;;;;;;5029871;28;20540;-66
2022/06/18 08:23:03;;;;;;;1999.90;999.90;;;30.40;78.70;;;;;;5058221;28;20447;-65
2022/06/18 08:25:33;;;;;;;1999.90;999.90;;;30.50;79.40;;;;;;5069144;28;20507;-66
2022/06/18 08:28:03;;;;;;;1999.90;999.90;;;30.60;78.60;;;;;;5070074;28;20491;-64
2022/06/18 08:30:30;;;;;;;1999.90;999.90;;;30.70;78.10;;;;;;5070383;28;20477;-65
2022/06/18 08:32:57;;;;;;;1999.90;999.90;;;30.80;77.50;;;;;;5067858;28;22061;-66
2022/06/18 08:35:24;;;;;;;1999.90;999.90;;;30.90;77.80;;;;;;5061751;28;20453;-66
2022/06/18 08:37:52;;;;;;;1999.90;999.90;;;31.10;77.20;;;;;;5065576;28;21014;-65
2022/06/18 08:40:44;;;;;;;1999.90;999.90;;;31.20;76.90;;;;;;5066178;28;20845;-66
2022/06/18 08:43:27;;;;;;;1999.90;999.90;;;31.20;77.50;;;;;;5075970;28;20433;-65
2022/06/18 08:46:02;;;;;;;1999.90;999.90;;;31.20;77.00;;;;;;5070375;28;20465;-65
2022/06/18 08:48:48;;;;;;;1999.90;999.90;;;31.10;76.60;;;;;;5063589;28;20856;-66
2022/06/18 08:51:25;;;;;;;1999.90;999.90;;;31.50;76.00;;;;;;5072352;28;20475;-65
2022/06/18 08:54:14;;;;;;;1999.90;999.90;;;31.60;75.40;;;;;;5075666;28;20446;-65
2022/06/18 08:56:45;;;;;;;1999.90;999.90;;;31.40;75.70;;;;;;5075191;28;20495;-67
2022/06/18 08:59:24;;;;;;;1999.90;999.90;;;31.10;76.60;;;;;;5062297;28;20486;-66
2022/06/18 09:01:57;;;;;;;1999.90;999.90;;;31.40;75.70;;;;;;5075097;28;20980;-65
2022/06/18 09:04:32;;;;;;;1999.90;999.90;;;31.60;75.90;;;;;;5075537;28;20425;-65
2022/06/18 09:07:21;;;;;;;1999.90;999.90;;;31.90;75.60;;;;;;5075098;28;20871;-65
2022/06/18 09:09:54;;;;;;;1999.90;999.90;;;32.10;74.40;;;;;;5069442;28;20465;-67
2022/06/18 09:12:25;;;;;;;1999.90;999.90;;;32.10;74.40;;;;;;5062259;28;20460;-66
2022/06/18 09:15:00;;;;;;;1999.90;999.90;;;32.00;74.20;;;;;;5075541;28;20855;-66
2022/06/18 09:17:30;;;;;;;1999.90;999.90;;;32.00;74.10;;;;;;5074947;28;20475;-66
2022/06/18 09:20:02;;;;;;;1999.90;999.90;;;31.90;74.00;;;;;;5074776;28;20460;-70
2022/06/18 09:22:33;;;;;;;1999.90;999.90;;;32.30;73.70;;;;;;5067083;28;21039;-66
2022/06/18 09:25:09;;;;;;;1999.90;999.90;;;32.50;73.20;;;;;;5070189;28;20437;-66
2022/06/18 09:27:41;;;;;;;1999.90;999.90;;;32.30;72.30;;;;;;5074737;28;20441;-65
2022/06/18 09:30:14;;;;;;;1999.90;999.90;;;31.60;75.10;;;;;;5074416;28;20469;-66
2022/06/18 09:32:45;;;;;;;1999.90;999.90;;;31.80;74.30;;;;;;5073821;28;20422;-66
2022/06/18 09:35:16;;;;;;;1999.90;999.90;;;32.10;74.50;;;;;;5062816;28;20492;-65
2022/06/18 09:37:48;;;;;;;1999.90;999.90;;;32.30;74.70;;;;;;5034708;28;20479;-65
2022/06/18 09:40:21;;;;;;;1999.90;999.90;;;32.40;73.40;;;;;;5034597;28;20994;-67
2022/06/18 09:42:51;;;;;;;1999.90;999.90;;;32.30;73.00;;;;;;5034895;28;20427;-65
2022/06/18 09:45:23;;;;;;;1999.90;999.90;;;32.40;73.40;;;;;;5038459;28;20461;-65
2022/06/18 09:47:52;;;;;;;1999.90;999.90;;;32.20;74.00;;;;;;5055361;28;20462;-66
2022/06/18 09:50:25;;;;;;;1999.90;999.90;;;32.00;74.60;;;;;;5070356;28;20497;-66
2022/06/18 09:53:03;;;;;;;1999.90;999.90;;;32.00;76.60;;;;;;5054363;28;20445;-66
2022/06/18 09:55:38;;;;;;;1999.90;999.90;;;32.30;74.80;;;;;;5054433;28;20465;-66
2022/06/18 09:58:10;;;;;;;1999.90;999.90;;;32.50;74.40;;;;;;5060080;28;20480;-65
2022/06/18 10:00:38;;;;;;;1999.90;999.90;;;32.60;73.90;;;;;;5065889;28;20512;-67
2022/06/18 10:03:13;;;;;;;1999.90;999.90;;;32.30;73.80;;;;;;5074423;28;20449;-66
2022/06/18 10:08:33;;;;;;;1999.90;999.90;;;32.50;73.20;;;;;;5071760;28;20895;-66
2022/06/18 10:11:08;;;;;;;1999.90;999.90;;;32.50;73.50;;;;;;5055099;28;20957;-66
2022/06/18 10:13:40;;;;;;;1999.90;999.90;;;32.10;73.60;;;;;;5065498;28;20417;-65
2022/06/18 10:16:14;;;;;;;1999.90;999.90;;;32.10;73.80;;;;;;5073679;28;20932;-66
2022/06/18 10:18:49;;;;;;;1999.90;999.90;;;32.50;73.50;;;;;;5073535;28;20485;-66
2022/06/18 10:21:20;;;;;;;1999.90;999.90;;;32.40;73.10;;;;;;5064191;28;20496;-66
2022/06/18 10:23:57;;;;;;;1999.90;999.90;;;32.10;73.60;;;;;;5065428;28;20917;-66
2022/06/18 10:26:33;;;;;;;1999.90;999.90;;;32.20;72.50;;;;;;5074127;28;20479;-66
2022/06/18 10:29:07;;;;;;;1999.90;999.90;;;32.30;73.50;;;;;;5073327;28;20890;-66
2022/06/18 10:31:48;;;;;;;1999.90;999.90;;;32.50;71.90;;;;;;5073907;28;20514;-67
2022/06/18 10:34:28;;;;;;;1999.90;999.90;;;32.40;72.00;;;;;;5061003;28;20474;-66
2022/06/18 10:37:04;;;;;;;1999.90;999.90;;;32.30;72.00;;;;;;5073720;28;20449;-66
2022/06/18 10:39:42;;;;;;;1999.90;999.90;;;32.20;73.40;;;;;;5073508;28;20469;-66
2022/06/18 10:42:21;;;;;;;1999.90;999.90;;;32.10;72.10;;;;;;5073512;28;20456;-66
2022/06/18 10:45:01;;;;;;;1999.90;999.90;;;32.00;73.40;;;;;;5070212;28;20473;-66
2022/06/18 10:47:34;;;;;;;1999.90;999.90;;;31.70;74.00;;;;;;5065161;28;20475;-66
2022/06/18 10:50:03;;;;;;;1999.90;999.90;;;32.00;73.40;;;;;;5073031;28;20511;-66
2022/06/18 10:52:32;;;;;;;1999.90;999.90;;;32.30;73.50;;;;;;5073683;28;20445;-66
2022/06/18 10:55:07;;;;;;;1999.90;999.90;;;32.50;73.40;;;;;;5073101;28;20941;-66
2022/06/18 10:57:34;;;;;;;1999.90;999.90;;;32.50;72.20;;;;;;5064661;28;20474;-67
2022/06/18 11:00:10;;;;;;;1999.90;999.90;;;32.40;69.90;;;;;;5067869;28;20519;-66
2022/06/18 11:02:40;;;;;;;1999.90;999.90;;;32.40;71.00;;;;;;5072468;28;20862;-66
2022/06/18 11:05:21;;;;;;;1999.90;999.90;;;32.40;71.10;;;;;;5073211;28;20454;-66
2022/06/18 11:07:50;;;;;;;1999.90;999.90;;;32.60;70.90;;;;;;5072785;28;20507;-65
2022/06/18 11:10:32;;;;;;;1999.90;999.90;;;32.70;69.90;;;;;;5060949;28;20467;-66
2022/06/18 11:13:01;;;;;;;1999.90;999.90;;;32.60;71.20;;;;;;5072899;28;20426;-65
2022/06/18 11:15:31;;;;;;;1999.90;999.90;;;32.60;68.80;;;;;;5072702;28;21137;-65
2022/06/18 11:18:00;;;;;;;1999.90;999.90;;;32.60;69.60;;;;;;5072557;28;20426;-66
2022/06/18 11:20:28;;;;;;;1999.90;999.90;;;32.40;69.80;;;;;;5067215;28;20490;-66
2022/06/18 11:22:57;;;;;;;1999.90;999.90;;;32.40;71.00;;;;;;5064064;28;21001;-66
2022/06/18 11:25:29;;;;;;;1999.90;999.90;;;32.60;71.30;;;;;;5072588;28;21002;-66
2022/06/18 11:27:58;;;;;;;1999.90;999.90;;;32.70;70.20;;;;;;5072707;28;20429;-64
2022/06/18 11:30:30;;;;;;;1999.90;999.90;;;32.80;70.10;;;;;;5072449;28;20866;-66
2022/06/18 11:32:57;;;;;;;1999.90;999.90;;;32.60;72.20;;;;;;5066825;28;20465;-66
2022/06/18 11:35:28;;;;;;;1999.90;999.90;;;32.60;71.70;;;;;;5064180;28;20441;-66
2022/06/18 11:37:57;;;;;;;1999.90;999.90;;;32.80;71.10;;;;;;5072575;28;20453;-66
2022/06/18 11:40:25;;;;;;;1999.90;999.90;;;33.00;71.40;;;;;;5072133;28;20506;-66
2022/06/18 11:42:55;;;;;;;1999.90;999.90;;;33.20;69.00;;;;;;5072414;28;21105;-66
2022/06/18 11:45:32;;;;;;;1999.90;999.90;;;33.10;68.90;;;;;;5061114;28;20466;-66
2022/06/18 11:48:06;;;;;;;1999.90;999.90;;;33.00;70.10;;;;;;5057572;28;20434;-66
2022/06/18 11:50:39;;;;;;;1999.90;999.90;;;32.90;71.00;;;;;;5052167;28;20872;-66
2022/06/18 11:53:13;;;;;;;1999.90;999.90;;;32.90;71.30;;;;;;5052274;28;20450;-66
2022/06/18 11:55:45;;;;;;;1999.90;999.90;;;33.00;70.60;;;;;;5052347;28;20507;-65
2022/06/18 11:58:20;;;;;;;1999.90;999.90;;;33.00;69.60;;;;;;5050905;28;20958;-64
2022/06/18 12:00:53;;;;;;;1999.90;999.90;;;32.80;70.40;;;;;;5053241;28;20466;-63
2022/06/18 12:03:33;;;;;;;1999.90;999.90;;;32.70;71.30;;;;;;5051990;28;20450;-66
2022/06/18 12:06:07;;;;;;;1999.90;999.90;;;32.70;71.70;;;;;;5052181;28;20503;-66
2022/06/18 12:08:35;;;;;;;1999.90;999.90;;;33.00;70.80;;;;;;5050947;28;20454;-66
2022/06/18 12:11:08;;;;;;;1999.90;999.90;;;33.10;71.40;;;;;;5059857;28;20501;-67
2022/06/18 12:13:40;;;;;;;1999.90;999.90;;;33.20;70.00;;;;;;5071535;28;20457;-65
2022/06/18 12:16:17;;;;;;;1999.90;999.90;;;33.20;68.70;;;;;;5071643;28;20430;-65
2022/06/18 12:18:52;;;;;;;1999.90;999.90;;;33.00;69.80;;;;;;5071679;28;20491;-65
2022/06/18 12:21:33;;;;;;;1999.90;999.90;;;32.80;69.80;;;;;;5061125;28;20489;-65
2022/06/18 12:24:07;;;;;;;1999.90;999.90;;;32.80;70.90;;;;;;5056779;28;20439;-66
2022/06/18 12:26:38;;;;;;;1999.90;999.90;;;32.90;70.20;;;;;;5051935;28;20446;-66